Terminal Aerodrome Forecast
Issued by NWS

Home | Current Version | Previous Version | Text Only | Print | Product List | Glossary On
Versions: 1 2 3 4 5 6 7 8 9 10 11 12 13 14
000
FTUS44 KSJT 060500
TAFSOA
TAF
KSOA 060520Z 0606/0706 17010KT P6SM BKN013
     FM060900 15006KT P6SM OVC008
     FM061400 18012G20KT P6SM BKN015
     FM061600 18012G20KT P6SM BKN025
     FM061800 17012G20KT P6SM SCT025 BKN050=

USA.gov is the U.S. government's official web portal to all federal, state and local government web resources and services.